Dozier, Alabama
Current Conditions -  °F | °C
As of 11:56 AM on Wednesday 28 Jan 2015 (Local Time) from K79J Reporting Station
Clear Clear  
Wind Chill: 59°   Ceiling: Unl
Heat Index: 59°   Visibility: 10mi
Dew Point: 31°   Wind: 3mph
Humidity: 35%   Direction: 80°E
Pressure: 30.27"   Gusts: NA
Location:  31.49°N, 86.36°W
Report Text: K79J 281756Z AUTO 08003KT 10SM CLR 15/M01 A3027 RMK AO2 SLP248 T01501006 10150 20022 58011
Loading
Personal Weather Stations






























Interactive Weather Map New forecast layout! Learn more

10-Day Weather Forecast

Advertisements
Track Severe Weather on mobile